Time;durP1;ratioP1;P1;durP2;ratioP2;P2;SDS_P1;SDS_P2;PMS_P1;PMS_P2;Temp;Humidity;BMP_temperature;BMP_pressure;BME280_temperature;BME280_humidity;BME280_pressure;Samples;Min_cycle;Max_cycle;Signal;HPM_P1;HPM_P2
2023/09/15 00:00:56;;;;;;;7.07;6.07;;;10.40;99.90;9.60;101218;;;;567969;250;24080;-77
2023/09/15 00:03:24;;;;;;;6.87;5.60;;;10.40;99.90;9.60;101214;;;;568113;250;24104;-77
2023/09/15 00:05:51;;;;;;;5.43;4.93;;;10.40;99.90;9.60;101210;;;;568434;250;24193;-78
2023/09/15 00:08:19;;;;;;;7.13;5.10;;;10.30;99.90;9.60;101211;;;;568460;250;24088;-78
2023/09/15 00:10:48;;;;;;;7.47;5.00;;;10.30;99.90;9.50;101202;;;;573812;250;24104;-77
2023/09/15 00:13:15;;;;;;;6.73;5.50;;;10.30;99.90;9.50;101202;;;;568224;250;24143;-77
2023/09/15 00:15:43;;;;;;;5.93;5.33;;;10.30;99.90;9.50;101207;;;;567847;250;24102;-78
2023/09/15 00:18:11;;;;;;;6.00;5.40;;;10.20;99.90;9.50;101212;;;;567780;250;24088;-77
2023/09/15 00:20:40;;;;;;;10.20;5.73;;;10.20;99.90;9.40;101211;;;;567913;250;24085;-77
2023/09/15 00:23:08;;;;;;;7.20;5.50;;;10.20;99.90;9.40;101212;;;;567832;250;24105;-77
2023/09/15 00:25:35;;;;;;;8.20;5.27;;;10.10;99.90;9.40;101208;;;;567935;250;24132;-77
2023/09/15 00:28:03;;;;;;;6.47;5.33;;;10.20;99.90;9.40;101222;;;;568281;250;24141;-77
2023/09/15 00:30:32;;;;;;;7.07;5.17;;;10.10;99.90;9.30;101218;;;;565126;250;24103;-77
2023/09/15 00:33:00;;;;;;;7.47;5.23;;;10.00;99.90;9.20;101210;;;;565100;250;24127;-78
2023/09/15 00:35:29;;;;;;;6.63;5.63;;;9.90;99.90;9.20;101210;;;;568246;250;24122;-76
2023/09/15 00:37:56;;;;;;;9.70;5.30;;;9.90;99.90;9.20;101210;;;;559980;250;24089;-77
2023/09/15 00:40:24;;;;;;;8.47;5.43;;;10.00;99.90;9.20;101218;;;;559930;250;24108;-76
2023/09/15 00:42:53;;;;;;;9.40;5.07;;;10.00;99.90;9.30;101221;;;;568161;250;24158;-77
2023/09/15 00:45:21;;;;;;;6.93;6.13;;;10.00;99.90;9.30;101227;;;;567768;250;24093;-77
2023/09/15 00:47:55;;;;;;;6.03;5.43;;;10.00;99.90;9.30;101224;;;;568934;249;24119;-77
2023/09/15 00:50:22;;;;;;;7.43;6.23;;;10.00;99.90;9.30;101222;;;;574102;248;24111;-77
2023/09/15 00:52:50;;;;;;;5.77;5.00;;;10.00;99.90;9.20;101227;;;;568421;250;24176;-77
2023/09/15 00:55:24;;;;;;;7.70;5.87;;;10.00;99.90;9.20;101224;;;;573973;248;24105;-77
2023/09/15 00:57:51;;;;;;;9.03;5.83;;;9.90;99.90;9.20;101220;;;;559870;250;24096;-78
2023/09/15 01:00:17;;;;;;;7.37;5.57;;;9.90;99.90;9.20;101228;;;;568030;250;24107;-77
2023/09/15 01:02:44;;;;;;;9.57;5.67;;;9.90;99.90;9.20;101226;;;;566966;248;24127;-77
2023/09/15 01:05:15;;;;;;;9.77;6.80;;;9.90;99.90;9.20;101231;;;;559595;250;25273;-77
2023/09/15 01:07:39;;;;;;;8.17;5.37;;;10.00;99.90;9.20;101229;;;;565012;250;24108;-77
2023/09/15 01:10:11;;;;;;;8.50;5.93;;;10.00;99.90;9.20;101234;;;;565376;250;24086;-76
2023/09/15 01:12:35;;;;;;;6.97;5.43;;;10.00;99.90;9.20;101232;;;;569124;250;24137;-77
2023/09/15 01:15:07;;;;;;;8.27;4.90;;;9.90;99.90;9.20;101236;;;;563151;250;35262;-78
2023/09/15 01:17:44;;;;;;;6.73;4.27;;;9.90;99.90;9.20;101237;;;;565467;248;24096;-78
2023/09/15 01:20:27;;;;;;;8.83;4.03;;;9.90;99.90;9.20;101241;;;;559532;250;24142;-77
2023/09/15 01:23:04;;;;;;;10.43;4.80;;;9.90;99.90;9.20;101247;;;;564430;250;24094;-78
2023/09/15 01:26:08;;;;;;;10.57;5.13;;;9.90;99.90;9.20;101248;;;;564584;250;26350;-76
2023/09/15 01:29:09;;;;;;;5.53;4.53;;;9.90;99.90;9.10;101250;;;;572560;250;24103;-77
2023/09/15 01:31:39;;;;;;;6.03;5.40;;;9.90;99.90;9.10;101236;;;;573640;249;24097;-77
2023/09/15 01:34:07;;;;;;;9.50;5.83;;;9.90;99.90;9.10;101242;;;;559963;250;24085;-78
2023/09/15 01:36:34;;;;;;;8.27;6.57;;;9.80;99.90;9.00;101247;;;;565054;250;24089;-77
2023/09/15 01:39:03;;;;;;;6.83;5.70;;;9.80;99.90;9.10;101242;;;;559870;250;24096;-77
2023/09/15 01:41:30;;;;;;;8.47;5.70;;;9.80;99.90;9.10;101250;;;;559872;250;24088;-77
2023/09/15 01:43:58;;;;;;;6.77;5.77;;;9.80;99.90;9.10;101247;;;;559905;250;24069;-77
2023/09/15 01:46:26;;;;;;;5.70;4.57;;;9.80;99.90;9.10;101249;;;;559598;250;24106;-77
2023/09/15 01:48:54;;;;;;;6.07;4.93;;;9.80;99.90;9.10;101241;;;;559531;250;24145;-77
2023/09/15 01:51:25;;;;;;;10.47;5.97;;;9.80;99.90;9.00;101246;;;;564721;250;24170;-79
2023/09/15 01:53:53;;;;;;;5.87;4.63;;;9.80;99.90;9.00;101248;;;;564351;250;24124;-78
2023/09/15 01:56:22;;;;;;;7.93;5.27;;;9.80;99.90;9.00;101246;;;;559939;250;24127;-78
2023/09/15 01:58:49;;;;;;;6.97;5.33;;;9.80;99.90;9.00;101254;;;;560471;249;24098;-77
2023/09/15 02:01:16;;;;;;;7.63;5.70;;;9.80;99.90;9.00;101251;;;;561073;250;24089;-78
2023/09/15 02:03:44;;;;;;;9.60;5.60;;;9.80;99.90;9.00;101248;;;;567207;250;24165;-78
2023/09/15 02:06:16;;;;;;;6.93;5.47;;;9.80;99.90;9.00;101249;;;;560277;250;24089;-77
2023/09/15 02:08:40;;;;;;;8.70;6.23;;;9.80;99.90;9.00;101251;;;;559931;250;24115;-78
2023/09/15 02:11:08;;;;;;;14.37;6.27;;;9.80;99.90;9.00;101252;;;;560156;250;24081;-78
2023/09/15 02:13:36;;;;;;;8.90;5.63;;;9.80;99.90;9.00;101250;;;;560019;250;24123;-78
2023/09/15 02:16:05;;;;;;;12.83;6.17;;;9.80;99.90;9.00;101255;;;;560400;250;24112;-77
2023/09/15 02:18:32;;;;;;;6.20;5.50;;;9.70;99.90;9.00;101257;;;;573829;249;24136;-78
2023/09/15 02:21:03;;;;;;;6.83;5.93;;;9.70;99.90;9.00;101258;;;;560178;250;24077;-77
2023/09/15 02:23:28;;;;;;;8.57;5.97;;;9.70;99.90;9.00;101266;;;;565363;250;24093;-76
2023/09/15 02:25:56;;;;;;;8.93;6.20;;;9.70;99.90;9.00;101266;;;;560172;250;24100;-77
2023/09/15 02:28:24;;;;;;;8.87;5.53;;;9.70;99.90;9.00;101273;;;;560189;250;24100;-78
2023/09/15 02:30:52;;;;;;;7.93;5.77;;;9.70;99.90;9.00;101268;;;;559712;250;24126;-79
2023/09/15 02:33:20;;;;;;;8.97;6.00;;;9.70;99.90;8.90;101266;;;;559835;250;24089;-78
2023/09/15 02:35:48;;;;;;;10.70;5.90;;;9.70;99.90;8.90;101269;;;;559508;250;24080;-79
2023/09/15 02:38:16;;;;;;;7.27;5.37;;;9.70;99.90;8.90;101264;;;;559740;250;24129;-78
2023/09/15 02:40:44;;;;;;;8.30;5.90;;;9.70;99.90;8.90;101266;;;;564753;250;24160;-77
2023/09/15 02:43:12;;;;;;;7.73;5.13;;;9.70;99.90;8.90;101276;;;;559514;250;24169;-78
2023/09/15 02:45:39;;;;;;;7.50;4.40;;;9.70;99.90;8.90;101270;;;;559614;250;24095;-79
2023/09/15 02:48:07;;;;;;;6.87;4.17;;;9.60;99.90;8.90;101272;;;;559947;250;24085;-78
2023/09/15 02:50:35;;;;;;;5.27;4.17;;;9.70;99.90;8.90;101270;;;;559945;250;24112;-78
2023/09/15 02:53:03;;;;;;;6.17;3.80;;;9.70;99.90;8.90;101266;;;;559619;250;24097;-78
2023/09/15 02:55:32;;;;;;;6.93;4.03;;;9.70;99.90;8.90;101278;;;;573626;249;25170;-78
2023/09/15 02:58:00;;;;;;;8.57;4.30;;;9.60;99.90;8.90;101274;;;;559899;250;24069;-78
2023/09/15 03:00:28;;;;;;;7.53;3.90;;;9.70;99.90;8.90;101279;;;;559925;250;24152;-78
2023/09/15 03:02:56;;;;;;;5.30;4.10;;;9.70;99.90;8.90;101287;;;;559584;250;24113;-77
2023/09/15 03:05:23;;;;;;;6.60;4.60;;;9.70;99.90;8.90;101275;;;;559418;250;24113;-77
2023/09/15 03:07:51;;;;;;;6.60;3.67;;;9.70;99.90;8.90;101275;;;;573375;250;24096;-79
2023/09/15 03:10:19;;;;;;;5.63;4.37;;;9.70;99.90;8.90;101273;;;;560394;249;24087;-78
2023/09/15 03:12:47;;;;;;;6.53;4.13;;;9.70;99.90;8.90;101274;;;;565745;250;24091;-78
2023/09/15 03:15:16;;;;;;;6.23;4.00;;;9.70;99.90;8.90;101286;;;;560493;250;24127;-78
2023/09/15 03:17:43;;;;;;;6.13;4.63;;;9.70;99.90;8.90;101283;;;;560340;250;24103;-78
2023/09/15 03:20:15;;;;;;;5.40;4.23;;;9.60;99.90;8.90;101284;;;;560385;250;24103;-77
2023/09/15 03:22:42;;;;;;;6.77;4.73;;;9.60;99.90;8.90;101283;;;;560380;250;24090;-78
2023/09/15 03:25:10;;;;;;;6.07;3.97;;;9.60;99.90;8.90;101292;;;;565400;250;24116;-77
2023/09/15 03:27:37;;;;;;;4.80;3.60;;;9.70;99.90;8.90;101287;;;;574057;248;24101;-78
2023/09/15 03:30:06;;;;;;;7.47;3.50;;;9.70;99.90;8.90;101291;;;;560229;250;24135;-79
2023/09/15 03:32:33;;;;;;;5.47;4.00;;;9.70;99.90;8.90;101290;;;;565030;250;25154;-78
2023/09/15 03:35:02;;;;;;;6.10;3.80;;;9.70;99.90;8.90;101292;;;;573368;250;24081;-77
2023/09/15 03:37:30;;;;;;;5.03;3.73;;;9.70;99.90;8.90;101287;;;;559882;250;24126;-78
2023/09/15 03:40:02;;;;;;;7.63;3.87;;;9.70;99.90;8.90;101298;;;;559768;250;24139;-78
2023/09/15 03:42:25;;;;;;;8.90;3.73;;;9.70;99.90;8.90;101297;;;;564234;250;24117;-78
2023/09/15 03:44:53;;;;;;;5.63;3.80;;;9.70;99.90;8.90;101298;;;;559848;250;24107;-77
2023/09/15 03:47:21;;;;;;;8.80;4.50;;;9.60;99.90;8.80;101293;;;;559493;250;24082;-78
2023/09/15 03:49:49;;;;;;;6.93;4.17;;;9.60;99.90;8.80;101298;;;;559912;250;24136;-77
2023/09/15 03:52:17;;;;;;;4.37;3.30;;;9.60;99.90;8.80;101301;;;;573642;250;24069;-78
2023/09/15 03:54:44;;;;;;;7.67;3.90;;;9.50;99.90;8.70;101302;;;;565109;250;24124;-78
2023/09/15 03:57:13;;;;;;;3.80;2.70;;;9.50;99.90;8.70;101300;;;;566403;250;24084;-78
2023/09/15 03:59:40;;;;;;;5.93;4.00;;;9.50;99.90;8.70;101303;;;;560066;250;24091;-78
2023/09/15 04:02:08;;;;;;;6.70;4.53;;;9.50;99.90;8.70;101304;;;;559642;250;24069;-79
2023/09/15 04:04:36;;;;;;;5.30;4.60;;;9.50;99.90;8.80;101310;;;;573371;250;24115;-79
2023/09/15 04:07:05;;;;;;;8.70;5.23;;;9.50;99.90;8.80;101309;;;;559959;250;24097;-79
2023/09/15 04:09:34;;;;;;;7.13;5.50;;;9.50;99.90;8.80;101309;;;;565096;250;24085;-79
2023/09/15 04:12:00;;;;;;;8.27;6.17;;;9.60;99.90;8.80;101312;;;;559905;250;24132;-78
2023/09/15 04:14:34;;;;;;;9.47;7.43;;;9.60;99.90;8.90;101319;;;;559947;250;24113;-79
2023/09/15 04:16:56;;;;;;;8.77;7.07;;;9.60;99.90;8.90;101323;;;;559951;250;24098;-79
2023/09/15 04:19:23;;;;;;;7.00;6.30;;;9.60;99.90;8.90;101321;;;;559894;250;24111;-79
2023/09/15 04:21:51;;;;;;;7.27;6.20;;;9.60;99.90;8.90;101320;;;;560536;249;24099;-77
2023/09/15 04:24:19;;;;;;;6.20;5.60;;;9.70;99.90;8.90;101319;;;;561016;250;25154;-77
2023/09/15 04:26:48;;;;;;;6.53;4.93;;;9.70;99.90;8.90;101323;;;;560473;250;24121;-79
2023/09/15 04:29:16;;;;;;;6.60;4.87;;;9.60;99.90;9.00;101323;;;;560261;250;24086;-77
2023/09/15 04:31:44;;;;;;;6.13;4.47;;;9.70;99.90;9.00;101335;;;;560196;250;24088;-78
2023/09/15 04:34:12;;;;;;;7.50;4.23;;;9.70;99.90;9.00;101334;;;;560397;250;24082;-78
2023/09/15 04:36:40;;;;;;;5.93;4.57;;;9.70;99.90;9.00;101336;;;;560423;250;24077;-78
2023/09/15 04:39:07;;;;;;;5.23;4.17;;;9.80;99.90;9.10;101338;;;;560368;250;24135;-77
2023/09/15 04:41:35;;;;;;;5.00;4.10;;;9.80;99.90;9.10;101330;;;;560223;250;24098;-79
2023/09/15 04:44:03;;;;;;;6.97;3.43;;;9.90;99.90;9.20;101338;;;;560294;250;24139;-78
2023/09/15 04:46:31;;;;;;;4.43;3.47;;;9.90;99.90;9.20;101345;;;;560185;250;24073;-78
2023/09/15 04:48:59;;;;;;;5.57;3.47;;;9.90;99.90;9.30;101362;;;;560273;250;24096;-78
2023/09/15 04:51:28;;;;;;;8.30;3.80;;;10.00;99.90;9.30;101356;;;;559912;250;24115;-78
2023/09/15 04:53:56;;;;;;;3.87;3.47;;;10.00;99.90;9.40;101348;;;;568241;250;24103;-77
2023/09/15 04:56:27;;;;;;;5.73;3.90;;;10.10;99.90;9.40;101347;;;;568149;250;24077;-78
2023/09/15 04:58:51;;;;;;;6.03;3.73;;;10.10;99.90;9.50;101351;;;;567635;250;24163;-78
2023/09/15 05:01:20;;;;;;;5.40;3.80;;;10.20;99.90;9.50;101351;;;;568014;250;24095;-79
2023/09/15 05:03:48;;;;;;;4.90;3.60;;;10.20;99.90;9.60;101361;;;;573225;250;24141;-78
2023/09/15 05:06:16;;;;;;;6.53;3.37;;;10.30;99.90;9.60;101363;;;;567880;250;24105;-78
2023/09/15 05:08:44;;;;;;;5.20;3.97;;;10.40;99.90;9.80;101372;;;;567854;250;24113;-78
2023/09/15 05:11:13;;;;;;;5.40;3.87;;;10.60;99.90;9.90;101359;;;;564662;250;24154;-78
2023/09/15 05:13:40;;;;;;;3.97;3.30;;;10.50;99.90;9.90;101366;;;;567880;250;24090;-79
2023/09/15 05:16:08;;;;;;;6.67;3.63;;;10.60;99.90;10.00;101363;;;;567827;250;24113;-78
2023/09/15 05:18:36;;;;;;;9.80;3.70;;;10.70;99.90;10.10;101371;;;;573351;250;24162;-79
2023/09/15 05:21:04;;;;;;;7.93;3.67;;;10.80;99.90;10.10;101372;;;;573628;250;24148;-78
2023/09/15 05:23:32;;;;;;;6.43;3.77;;;10.80;99.90;10.20;101380;;;;573626;250;24094;-77
2023/09/15 05:26:00;;;;;;;5.90;3.57;;;10.90;99.90;10.20;101379;;;;565052;250;24077;-77
2023/09/15 05:28:28;;;;;;;6.57;3.50;;;10.90;99.90;10.20;101382;;;;568215;250;24089;-77
2023/09/15 05:31:02;;;;;;;4.43;3.47;;;11.00;99.90;10.30;101377;;;;573647;250;24085;-77
2023/09/15 05:33:30;;;;;;;7.13;3.53;;;11.00;99.90;10.50;101375;;;;574326;248;24110;-78
2023/09/15 05:35:57;;;;;;;6.40;4.23;;;11.20;99.90;11.60;101377;;;;563527;250;24120;-77
2023/09/15 05:38:26;;;;;;;5.63;4.23;;;13.80;99.90;13.70;101389;;;;568663;250;24095;-76
2023/09/15 05:40:55;;;;;;;7.13;4.37;;;16.00;99.90;16.00;101395;;;;560564;250;24082;-77
2023/09/15 05:43:23;;;;;;;7.67;3.77;;;18.10;99.90;18.10;101408;;;;573690;248;24072;-77
2023/09/15 05:45:52;;;;;;;4.00;2.80;;;20.20;99.90;20.00;101413;;;;565146;250;24063;-76
2023/09/15 05:48:23;;;;;;;4.13;2.70;;;20.10;99.90;21.70;101413;;;;573822;249;24074;-77
2023/09/15 05:50:52;;;;;;;9.90;4.00;;;21.90;99.90;23.20;101415;;;;573998;249;24088;-77
2023/09/15 05:53:16;;;;;;;5.43;3.20;;;23.40;99.90;24.50;101402;;;;559279;250;25173;-78
2023/09/15 05:55:44;;;;;;;4.13;3.10;;;24.80;99.90;25.80;101405;;;;573915;250;23080;-78
2023/09/15 05:58:12;;;;;;;5.77;3.30;;;26.10;99.90;27.00;101402;;;;565273;250;23091;-77
2023/09/15 06:00:40;;;;;;;4.82;3.25;;;27.40;99.90;28.10;101403;;;;573894;250;23131;-77
2023/09/15 06:03:08;;;;;;;3.40;2.72;;;28.40;99.90;29.10;101411;;;;567837;250;23102;-79
2023/09/15 06:05:36;;;;;;;4.18;3.10;;;30.50;92.60;30.20;101412;;;;564699;250;24113;-78
2023/09/15 06:08:06;;;;;;;5.50;3.03;;;30.40;92.50;31.00;101410;;;;569103;252;23124;-78
2023/09/15 06:10:32;;;;;;;5.32;2.40;;;31.30;84.00;31.60;101414;;;;560002;252;24160;-77
2023/09/15 06:13:00;;;;;;;3.62;3.12;;;32.00;77.00;32.30;101417;;;;562991;252;35486;-78
2023/09/15 06:15:33;;;;;;;3.97;2.90;;;32.60;71.60;32.80;101422;;;;574763;245;23079;-79
2023/09/15 06:17:59;;;;;;;3.42;2.58;;;33.20;68.40;33.40;101421;;;;574630;245;24087;-78
2023/09/15 06:20:30;;;;;;;6.65;3.00;;;33.80;64.60;34.20;101428;;;;574921;245;23068;-79
2023/09/15 06:22:54;;;;;;;6.78;3.00;;;34.50;62.30;35.00;101426;;;;575084;245;23071;-78
2023/09/15 06:25:22;;;;;;;4.75;2.83;;;35.30;58.80;35.80;101431;;;;575259;245;23068;-79
2023/09/15 06:27:50;;;;;;;3.83;3.05;;;36.10;58.40;36.60;101434;;;;570256;245;35181;-78
2023/09/15 06:30:18;;;;;;;3.62;2.42;;;36.80;54.90;37.10;101447;;;;585111;245;23098;-78
2023/09/15 06:32:49;;;;;;;4.62;3.15;;;37.40;54.00;37.70;101449;;;;575243;245;23060;-77
2023/09/15 06:35:17;;;;;;;3.72;2.35;;;37.90;52.20;38.30;101458;;;;575306;245;23064;-79
2023/09/15 06:37:45;;;;;;;3.42;2.10;;;38.50;51.30;38.80;101458;;;;574839;245;24106;-79
2023/09/15 06:40:13;;;;;;;3.15;2.03;;;39.00;50.00;39.10;101461;;;;575087;245;23074;-78
2023/09/15 06:42:41;;;;;;;2.10;1.92;;;39.30;49.30;39.50;101459;;;;574910;245;23125;-79
2023/09/15 06:45:10;;;;;;;2.30;2.08;;;39.60;48.60;39.70;101462;;;;575820;245;23077;-79
2023/09/15 06:47:37;;;;;;;2.40;2.17;;;40.00;48.20;39.90;101471;;;;576000;245;23076;-79
2023/09/15 06:50:05;;;;;;;2.08;1.92;;;40.20;47.30;40.30;101472;;;;575689;245;23059;-79
2023/09/15 06:52:33;;;;;;;1.95;1.85;;;40.50;46.80;40.80;101477;;;;576008;245;24118;-80
2023/09/15 06:55:01;;;;;;;3.40;2.03;;;40.90;46.00;41.20;101474;;;;575842;245;23078;-80
2023/09/15 06:57:29;;;;;;;2.17;1.77;;;41.30;44.80;41.50;101479;;;;575791;245;23058;-78
2023/09/15 06:59:56;;;;;;;2.78;2.00;;;41.70;44.00;41.80;101474;;;;575841;245;23071;-78
2023/09/15 07:02:25;;;;;;;3.00;2.60;;;42.50;43.90;42.30;101481;;;;575677;245;23112;-79
2023/09/15 07:04:54;;;;;;;4.97;2.37;;;42.80;43.40;42.60;101487;;;;575273;245;23093;-78
2023/09/15 07:07:22;;;;;;;4.20;2.95;;;42.80;43.40;42.80;101483;;;;575123;245;23097;-79
2023/09/15 07:09:50;;;;;;;6.45;2.80;;;43.00;42.20;42.80;101489;;;;575077;245;23076;-78
2023/09/15 07:12:18;;;;;;;3.00;2.30;;;43.10;42.40;42.80;101494;;;;575154;245;23095;-79
2023/09/15 07:14:45;;;;;;;6.47;2.10;;;43.10;41.30;42.50;101492;;;;575096;245;23080;-78
2023/09/15 07:17:13;;;;;;;2.15;1.95;;;42.80;41.70;42.30;101494;;;;575172;245;23060;-78
2023/09/15 07:19:44;;;;;;;1.80;1.70;;;42.70;40.70;42.00;101494;;;;575201;245;23106;-78
2023/09/15 07:22:09;;;;;;;2.10;1.70;;;42.40;41.10;42.10;101501;;;;575314;245;23126;-79
2023/09/15 07:24:40;;;;;;;2.40;1.67;;;42.50;41.70;42.60;101495;;;;575354;245;24089;-79
2023/09/15 07:27:05;;;;;;;2.35;1.90;;;42.80;41.60;42.90;101498;;;;575384;245;23057;-79
2023/09/15 07:29:34;;;;;;;3.45;1.87;;;43.30;40.10;43.10;101497;;;;575374;245;23056;-78
2023/09/15 07:32:02;;;;;;;2.17;1.90;;;43.30;40.10;42.90;101498;;;;575441;245;23094;-78
2023/09/15 07:34:30;;;;;;;3.12;1.80;;;43.30;40.10;43.20;101492;;;;575358;245;23073;-79
2023/09/15 07:37:00;;;;;;;7.47;2.65;;;43.50;40.40;43.50;101494;;;;575327;245;23070;-78
2023/09/15 07:39:29;;;;;;;5.95;2.15;;;43.70;39.70;43.90;101497;;;;574937;245;23132;-79
2023/09/15 07:41:54;;;;;;;4.50;2.33;;;44.00;39.40;44.10;101505;;;;574804;245;23083;-79
2023/09/15 07:44:22;;;;;;;1.52;1.42;;;44.30;38.80;44.10;101511;;;;574750;245;24145;-78
2023/09/15 07:46:50;;;;;;;1.20;1.20;;;44.50;37.90;44.60;101504;;;;574913;245;23148;-78
2023/09/15 07:49:18;;;;;;;1.58;1.20;;;44.80;37.10;43.60;101510;;;;574740;245;23069;-79
2023/09/15 07:51:48;;;;;;;1.65;1.55;;;43.60;38.10;42.40;101505;;;;575354;245;23070;-79
2023/09/15 07:54:14;;;;;;;1.70;1.60;;;43.50;38.00;41.70;101501;;;;575294;245;23139;-77
2023/09/15 07:56:42;;;;;;;4.12;1.77;;;42.80;38.50;40.50;101510;;;;576291;245;23060;-78
2023/09/15 07:59:14;;;;;;;2.75;1.95;;;40.10;40.50;38.60;101508;;;;576493;245;23058;-78
2023/09/15 08:01:39;;;;;;;9.23;2.12;;;40.10;40.50;39.00;101508;;;;575940;245;23080;-78
2023/09/15 08:04:07;;;;;;;3.62;1.50;;;39.80;41.50;40.00;101505;;;;575923;245;23073;-78
2023/09/15 08:06:35;;;;;;;1.30;1.20;;;40.30;41.70;41.00;101502;;;;575431;245;23056;-78
2023/09/15 08:09:04;;;;;;;1.45;1.35;;;41.10;41.40;40.50;101507;;;;575529;245;23111;-79
2023/09/15 08:11:34;;;;;;;1.45;1.20;;;41.30;39.20;39.30;101511;;;;575345;245;23085;-78
2023/09/15 08:13:58;;;;;;;1.77;1.45;;;40.30;40.50;39.40;101508;;;;575088;245;23079;-78
2023/09/15 08:16:26;;;;;;;5.85;1.60;;;39.90;40.80;40.00;101496;;;;575251;245;23058;-78
2023/09/15 08:18:55;;;;;;;2.60;1.15;;;41.00;40.30;40.80;101506;;;;575150;245;23060;-79
2023/09/15 08:21:25;;;;;;;1.20;0.98;;;41.50;38.70;41.10;101503;;;;575237;245;23055;-78
2023/09/15 08:23:52;;;;;;;1.20;1.20;;;41.70;39.00;40.90;101506;;;;575427;245;23061;-78
2023/09/15 08:26:20;;;;;;;1.60;1.50;;;41.60;38.60;40.70;101510;;;;575481;245;24137;-79
2023/09/15 08:28:48;;;;;;;0.82;0.82;;;41.70;38.60;40.50;101509;;;;575516;245;23065;-78
2023/09/15 08:31:16;;;;;;;1.98;1.12;;;41.50;38.90;40.70;101509;;;;575514;245;23052;-79
2023/09/15 08:33:44;;;;;;;1.50;1.40;;;41.70;38.70;41.00;101519;;;;575307;245;23115;-78
2023/09/15 08:36:12;;;;;;;1.37;1.12;;;41.80;38.10;41.10;101513;;;;575336;245;23126;-78
2023/09/15 08:38:40;;;;;;;1.87;1.20;;;42.00;38.20;41.50;101516;;;;575249;245;23072;-79
2023/09/15 08:41:33;;;;;;;1.33;0.90;;;42.30;38.10;41.20;101518;;;;574978;245;23117;-77
2023/09/15 08:44:03;;;;;;;1.30;1.20;;;42.40;37.30;40.50;101521;;;;572431;245;23121;-79
2023/09/15 08:46:31;;;;;;;1.17;1.17;;;41.90;37.90;40.80;101525;;;;574857;245;23064;-78
2023/09/15 08:49:01;;;;;;;5.60;1.60;;;41.90;37.40;40.70;101519;;;;574986;245;24197;-79
2023/09/15 08:51:30;;;;;;;1.65;1.10;;;41.90;37.30;41.40;101517;;;;574765;245;24108;-78
2023/09/15 08:53:59;;;;;;;0.88;0.88;;;42.20;37.50;40.90;101521;;;;575140;245;24074;-79
2023/09/15 08:56:26;;;;;;;1.20;1.10;;;42.40;37.00;39.30;101526;;;;575329;245;23071;-79
2023/09/15 08:58:55;;;;;;;0.88;0.88;;;41.30;38.70;40.00;101515;;;;575288;245;23088;-78
2023/09/15 09:01:27;;;;;;;1.10;1.10;;;41.70;38.10;40.40;101520;;;;575320;245;23087;-78
2023/09/15 09:03:51;;;;;;;1.10;1.10;;;41.70;38.00;40.90;101523;;;;574866;245;23079;-79
2023/09/15 09:06:20;;;;;;;1.75;1.17;;;42.00;37.80;40.70;101514;;;;575341;245;23050;-80
2023/09/15 09:08:47;;;;;;;1.35;1.05;;;42.10;37.20;38.40;101518;;;;569896;245;23161;-79
2023/09/15 09:11:15;;;;;;;2.05;1.00;;;40.70;37.90;36.60;101520;;;;576388;245;23104;-79
2023/09/15 09:13:43;;;;;;;1.17;1.05;;;39.20;39.40;36.20;101526;;;;575690;245;23096;-78
2023/09/15 09:16:11;;;;;;;1.30;1.05;;;38.20;40.40;36.30;101528;;;;568446;245;23209;-78
2023/09/15 09:18:40;;;;;;;0.90;0.80;;;37.80;40.40;36.80;101525;;;;575389;245;23099;-79
2023/09/15 09:21:07;;;;;;;0.80;0.80;;;38.00;40.50;37.80;101528;;;;575459;245;23066;-79
2023/09/15 09:23:38;;;;;;;1.15;1.05;;;38.80;40.40;38.70;101533;;;;570666;245;35041;-78
2023/09/15 09:26:03;;;;;;;33.80;5.33;;;39.70;39.60;39.70;101532;;;;570480;245;35079;-78
2023/09/15 09:28:36;;;;;;;4.57;1.30;;;40.80;39.10;39.70;101533;;;;568526;245;23089;-78
2023/09/15 09:31:04;;;;;;;1.17;1.02;;;41.30;38.30;40.20;101524;;;;575506;245;23075;-79
2023/09/15 09:33:32;;;;;;;1.67;1.08;;;41.70;38.20;41.00;101528;;;;569692;245;24101;-76
2023/09/15 09:36:00;;;;;;;1.00;1.00;;;42.50;36.90;40.60;101536;;;;575481;245;23075;-79
2023/09/15 09:38:31;;;;;;;1.00;1.00;;;42.50;35.80;40.10;101537;;;;574203;245;23069;-77
2023/09/15 09:41:06;;;;;;;1.05;1.00;;;42.10;36.60;39.70;101530;;;;575299;245;23096;-77
2023/09/15 09:43:24;;;;;;;2.20;1.12;;;41.70;37.30;39.90;101537;;;;574483;245;23072;-77
2023/09/15 09:45:55;;;;;;;1.60;1.25;;;41.70;36.50;39.10;101530;;;;574823;245;24147;-78
2023/09/15 09:48:23;;;;;;;1.95;1.00;;;41.40;36.20;39.00;101535;;;;579607;245;23078;-77
2023/09/15 09:50:51;;;;;;;1.15;1.10;;;40.10;36.50;37.40;101531;;;;574578;245;24091;-77
2023/09/15 09:53:28;;;;;;;3.15;1.12;;;40.10;36.40;36.90;101519;;;;575044;245;23083;-77
2023/09/15 09:56:00;;;;;;;1.00;1.00;;;39.20;38.10;37.20;101522;;;;574969;245;23072;-78
2023/09/15 09:58:25;;;;;;;1.20;1.10;;;39.20;38.10;38.00;101511;;;;574861;245;23114;-78
2023/09/15 10:00:53;;;;;;;0.80;0.80;;;39.80;38.20;38.60;101510;;;;575063;245;24101;-79
2023/09/15 10:03:24;;;;;;;3.17;1.33;;;40.60;37.70;39.30;101510;;;;574947;245;23065;-80
2023/09/15 10:05:55;;;;;;;2.00;1.30;;;41.30;37.10;39.30;101521;;;;574684;245;23081;-78
2023/09/15 10:08:26;;;;;;;1.60;0.90;;;41.50;36.40;38.70;101526;;;;574928;245;23101;-78
2023/09/15 10:10:54;;;;;;;0.85;0.85;;;41.20;36.50;37.40;101522;;;;574365;245;24164;-79
2023/09/15 10:13:22;;;;;;;0.90;0.90;;;40.20;37.30;35.70;101526;;;;574196;245;24130;-80
2023/09/15 10:15:48;;;;;;;1.10;1.10;;;36.50;39.70;33.70;101521;;;;574187;245;24113;-77
2023/09/15 10:18:15;;;;;;;2.03;0.90;;;36.40;39.60;32.10;101525;;;;574640;245;23131;-77
2023/09/15 10:20:43;;;;;;;1.08;0.95;;;34.60;41.60;30.10;101522;;;;569863;245;23084;-77
2023/09/15 10:23:17;;;;;;;1.00;1.00;;;30.60;44.80;28.40;101528;;;;568995;245;23078;-77
2023/09/15 10:25:48;;;;;;;1.20;1.20;;;30.50;44.80;26.90;101520;;;;575729;245;23084;-78
2023/09/15 10:28:19;;;;;;;0.77;0.77;;;28.90;47.10;26.10;101521;;;;569073;245;24110;-77
2023/09/15 10:30:47;;;;;;;1.10;1.10;;;27.60;49.00;25.60;101517;;;;575395;245;23130;-77
2023/09/15 10:33:12;;;;;;;0.90;0.90;;;26.90;51.30;25.00;101515;;;;575444;245;23068;-77
2023/09/15 10:35:43;;;;;;;2.50;0.80;;;26.00;53.50;24.40;101513;;;;575597;245;23056;-77
2023/09/15 10:38:12;;;;;;;1.30;0.67;;;24.70;57.20;23.80;101500;;;;569109;245;23088;-77
2023/09/15 10:40:46;;;;;;;1.17;0.90;;;24.20;58.50;23.40;101498;;;;574954;245;23123;-77
2023/09/15 10:43:15;;;;;;;0.70;0.70;;;24.10;58.40;22.90;101499;;;;575214;245;24097;-77
2023/09/15 10:45:44;;;;;;;0.97;0.97;;;23.40;60.70;22.70;101506;;;;574919;245;24070;-78
2023/09/15 10:48:11;;;;;;;1.07;1.03;;;23.30;60.60;22.20;101506;;;;573601;245;24268;-78
2023/09/15 10:50:39;;;;;;;2.73;1.00;;;22.90;60.70;21.90;101502;;;;575113;245;24069;-77
2023/09/15 10:53:09;;;;;;;4.57;1.40;;;22.50;62.60;21.60;101503;;;;574935;245;24089;-79
2023/09/15 10:55:43;;;;;;;0.90;0.90;;;22.20;64.00;21.20;101492;;;;575330;245;24066;-77
2023/09/15 10:58:14;;;;;;;1.10;1.10;;;21.90;64.60;20.90;101495;;;;575186;245;24081;-79
2023/09/15 11:00:39;;;;;;;0.87;0.73;;;21.50;65.70;20.60;101500;;;;575271;245;23064;-76
2023/09/15 11:03:07;;;;;;;1.43;0.80;;;21.20;66.90;20.30;101487;;;;575155;245;23112;-78
2023/09/15 11:05:35;;;;;;;1.47;0.70;;;20.90;66.60;20.20;101492;;;;584730;245;24082;-78
2023/09/15 11:08:05;;;;;;;1.33;0.70;;;20.70;67.90;20.10;101488;;;;579733;245;24123;-79
2023/09/15 11:10:32;;;;;;;0.80;0.80;;;20.70;69.50;19.90;101481;;;;574437;245;23144;-78
2023/09/15 11:12:59;;;;;;;0.97;0.77;;;20.50;70.80;19.70;101501;;;;574693;245;24076;-78
2023/09/15 11:15:27;;;;;;;0.60;0.57;;;20.30;71.60;19.60;101480;;;;583348;245;23109;-77
2023/09/15 11:17:54;;;;;;;9.87;1.00;;;20.10;72.30;19.40;101490;;;;574564;245;24109;-78
2023/09/15 11:20:23;;;;;;;0.70;0.60;;;19.90;73.40;19.40;101483;;;;574746;245;23123;-76